sensor_id;sensor_type;location;lat;lon;timestamp;temperature;humidity
20546;DHT22;10431;50.228;9.112;2023-11-18T00:01:30;19.00;99.90
20546;DHT22;10431;50.228;9.112;2023-11-18T00:03:56;19.00;99.90
20546;DHT22;10431;50.228;9.112;2023-11-18T00:06:23;19.00;99.90
20546;DHT22;10431;50.228;9.112;2023-11-18T00:08:49;19.00;99.90
20546;DHT22;10431;50.228;9.112;2023-11-18T00:11:15;19.00;99.90
20546;DHT22;10431;50.228;9.112;2023-11-18T00:13:42;19.00;99.90
20546;DHT22;10431;50.228;9.112;2023-11-18T00:16:09;19.00;99.90
20546;DHT22;10431;50.228;9.112;2023-11-18T00:18:39;19.00;99.90
20546;DHT22;10431;50.228;9.112;2023-11-18T00:21:06;19.00;99.90
20546;DHT22;10431;50.228;9.112;2023-11-18T00:23:34;19.00;99.90
20546;DHT22;10431;50.228;9.112;2023-11-18T00:26:01;18.90;99.90
20546;DHT22;10431;50.228;9.112;2023-11-18T00:28:28;18.90;99.90
20546;DHT22;10431;50.228;9.112;2023-11-18T00:30:54;18.90;99.90
20546;DHT22;10431;50.228;9.112;2023-11-18T00:33:21;18.90;99.90
20546;DHT22;10431;50.228;9.112;2023-11-18T00:35:47;18.90;99.90
20546;DHT22;10431;50.228;9.112;2023-11-18T00:38:13;18.90;99.90
20546;DHT22;10431;50.228;9.112;2023-11-18T00:40:40;18.90;99.90
20546;DHT22;10431;50.228;9.112;2023-11-18T00:43:06;18.90;99.90
20546;DHT22;10431;50.228;9.112;2023-11-18T00:45:34;18.90;99.90
20546;DHT22;10431;50.228;9.112;2023-11-18T00:48:00;19.00;99.90
20546;DHT22;10431;50.228;9.112;2023-11-18T00:50:26;18.90;99.90
20546;DHT22;10431;50.228;9.112;2023-11-18T00:52:52;18.90;99.90
20546;DHT22;10431;50.228;9.112;2023-11-18T00:55:19;18.90;99.90
20546;DHT22;10431;50.228;9.112;2023-11-18T00:57:46;18.90;99.90
20546;DHT22;10431;50.228;9.112;2023-11-18T01:00:13;18.90;99.90
20546;DHT22;10431;50.228;9.112;2023-11-18T01:02:44;18.90;99.90
20546;DHT22;10431;50.228;9.112;2023-11-18T01:05:12;18.90;99.90
20546;DHT22;10431;50.228;9.112;2023-11-18T01:07:39;18.90;99.90
20546;DHT22;10431;50.228;9.112;2023-11-18T01:10:10;18.90;99.90
20546;DHT22;10431;50.228;9.112;2023-11-18T01:12:36;18.90;99.90
20546;DHT22;10431;50.228;9.112;2023-11-18T01:15:03;18.90;99.90
20546;DHT22;10431;50.228;9.112;2023-11-18T01:17:30;18.90;99.90
20546;DHT22;10431;50.228;9.112;2023-11-18T01:19:58;18.90;99.90
20546;DHT22;10431;50.228;9.112;2023-11-18T01:22:25;18.90;99.90
20546;DHT22;10431;50.228;9.112;2023-11-18T01:24:51;18.90;99.90
20546;DHT22;10431;50.228;9.112;2023-11-18T01:27:17;18.90;99.90
20546;DHT22;10431;50.228;9.112;2023-11-18T01:29:45;18.80;99.90
20546;DHT22;10431;50.228;9.112;2023-11-18T01:32:13;18.90;99.90
20546;DHT22;10431;50.228;9.112;2023-11-18T01:34:40;18.90;99.90
20546;DHT22;10431;50.228;9.112;2023-11-18T01:37:06;18.90;99.90
20546;DHT22;10431;50.228;9.112;2023-11-18T01:39:34;18.80;99.90
20546;DHT22;10431;50.228;9.112;2023-11-18T01:42:00;18.90;99.90
20546;DHT22;10431;50.228;9.112;2023-11-18T01:44:28;18.90;99.90
20546;DHT22;10431;50.228;9.112;2023-11-18T01:46:55;18.90;99.90
20546;DHT22;10431;50.228;9.112;2023-11-18T01:49:22;18.90;99.90
20546;DHT22;10431;50.228;9.112;2023-11-18T01:51:50;18.90;99.90
20546;DHT22;10431;50.228;9.112;2023-11-18T01:54:20;18.90;99.90
20546;DHT22;10431;50.228;9.112;2023-11-18T01:56:50;18.90;99.90
20546;DHT22;10431;50.228;9.112;2023-11-18T01:59:18;18.90;99.90
20546;DHT22;10431;50.228;9.112;2023-11-18T02:01:50;18.90;99.90
20546;DHT22;10431;50.228;9.112;2023-11-18T02:04:17;18.90;99.90
20546;DHT22;10431;50.228;9.112;2023-11-18T02:06:47;18.90;99.90
20546;DHT22;10431;50.228;9.112;2023-11-18T02:09:15;18.90;99.90
20546;DHT22;10431;50.228;9.112;2023-11-18T02:11:52;18.90;99.90
20546;DHT22;10431;50.228;9.112;2023-11-18T02:14:20;18.90;99.90
20546;DHT22;10431;50.228;9.112;2023-11-18T02:16:49;18.90;99.90
20546;DHT22;10431;50.228;9.112;2023-11-18T02:19:20;18.90;99.90
20546;DHT22;10431;50.228;9.112;2023-11-18T02:21:52;18.80;99.90
20546;DHT22;10431;50.228;9.112;2023-11-18T02:24:30;18.90;99.90
20546;DHT22;10431;50.228;9.112;2023-11-18T02:26:58;18.90;99.90
20546;DHT22;10431;50.228;9.112;2023-11-18T02:29:35;18.80;99.90
20546;DHT22;10431;50.228;9.112;2023-11-18T02:32:17;18.90;99.90
20546;DHT22;10431;50.228;9.112;2023-11-18T02:35:25;18.90;99.90
20546;DHT22;10431;50.228;9.112;2023-11-18T02:37:54;18.90;99.90
20546;DHT22;10431;50.228;9.112;2023-11-18T02:40:47;18.80;99.90
20546;DHT22;10431;50.228;9.112;2023-11-18T02:43:17;18.90;99.90
20546;DHT22;10431;50.228;9.112;2023-11-18T02:45:45;18.80;99.90
20546;DHT22;10431;50.228;9.112;2023-11-18T02:48:12;18.80;99.90
20546;DHT22;10431;50.228;9.112;2023-11-18T02:50:40;18.90;99.90
20546;DHT22;10431;50.228;9.112;2023-11-18T02:53:08;18.80;99.90
20546;DHT22;10431;50.228;9.112;2023-11-18T02:55:35;18.90;99.90
20546;DHT22;10431;50.228;9.112;2023-11-18T02:58:01;18.80;99.90
20546;DHT22;10431;50.228;9.112;2023-11-18T03:00:29;18.80;99.90
20546;DHT22;10431;50.228;9.112;2023-11-18T03:02:55;18.90;99.90
20546;DHT22;10431;50.228;9.112;2023-11-18T03:05:21;18.90;99.90
20546;DHT22;10431;50.228;9.112;2023-11-18T03:07:48;18.80;99.90
20546;DHT22;10431;50.228;9.112;2023-11-18T03:10:20;18.80;99.90
20546;DHT22;10431;50.228;9.112;2023-11-18T03:12:51;18.80;99.90
20546;DHT22;10431;50.228;9.112;2023-11-18T03:15:18;18.80;99.90
20546;DHT22;10431;50.228;9.112;2023-11-18T03:17:49;18.80;99.90
20546;DHT22;10431;50.228;9.112;2023-11-18T03:20:16;18.90;99.90
20546;DHT22;10431;50.228;9.112;2023-11-18T03:22:43;18.80;99.90
20546;DHT22;10431;50.228;9.112;2023-11-18T03:25:14;18.90;99.90
20546;DHT22;10431;50.228;9.112;2023-11-18T03:27:40;18.80;99.90
20546;DHT22;10431;50.228;9.112;2023-11-18T03:30:07;18.80;99.90
20546;DHT22;10431;50.228;9.112;2023-11-18T03:32:35;18.80;99.90
20546;DHT22;10431;50.228;9.112;2023-11-18T03:35:03;18.80;99.90
20546;DHT22;10431;50.228;9.112;2023-11-18T03:37:30;18.90;99.90
20546;DHT22;10431;50.228;9.112;2023-11-18T03:39:57;18.80;99.90
20546;DHT22;10431;50.228;9.112;2023-11-18T03:42:23;18.80;99.90
20546;DHT22;10431;50.228;9.112;2023-11-18T03:44:49;18.80;99.90
20546;DHT22;10431;50.228;9.112;2023-11-18T03:47:15;18.80;99.90
20546;DHT22;10431;50.228;9.112;2023-11-18T03:49:42;18.80;99.90
20546;DHT22;10431;50.228;9.112;2023-11-18T03:52:08;18.80;99.90
20546;DHT22;10431;50.228;9.112;2023-11-18T03:54:34;18.80;99.90
20546;DHT22;10431;50.228;9.112;2023-11-18T03:57:00;18.80;99.90
20546;DHT22;10431;50.228;9.112;2023-11-18T03:59:26;18.80;99.90
20546;DHT22;10431;50.228;9.112;2023-11-18T04:01:53;18.80;99.90
20546;DHT22;10431;50.228;9.112;2023-11-18T04:04:19;18.80;99.90
20546;DHT22;10431;50.228;9.112;2023-11-18T04:06:45;18.80;99.90
20546;DHT22;10431;50.228;9.112;2023-11-18T04:09:12;18.80;99.90
20546;DHT22;10431;50.228;9.112;2023-11-18T04:11:39;18.80;99.90
20546;DHT22;10431;50.228;9.112;2023-11-18T04:14:05;18.80;99.90
20546;DHT22;10431;50.228;9.112;2023-11-18T04:16:31;18.80;99.90
20546;DHT22;10431;50.228;9.112;2023-11-18T04:18:57;18.80;99.90
20546;DHT22;10431;50.228;9.112;2023-11-18T04:21:24;18.80;99.90
20546;DHT22;10431;50.228;9.112;2023-11-18T04:23:50;18.80;99.90
20546;DHT22;10431;50.228;9.112;2023-11-18T04:26:16;18.80;99.90
20546;DHT22;10431;50.228;9.112;2023-11-18T04:28:42;18.80;99.90
20546;DHT22;10431;50.228;9.112;2023-11-18T04:31:08;18.80;99.90
20546;DHT22;10431;50.228;9.112;2023-11-18T04:33:34;18.80;99.90
20546;DHT22;10431;50.228;9.112;2023-11-18T04:36:01;18.80;99.90
20546;DHT22;10431;50.228;9.112;2023-11-18T04:38:27;18.80;99.90
20546;DHT22;10431;50.228;9.112;2023-11-18T04:40:54;18.80;99.90
20546;DHT22;10431;50.228;9.112;2023-11-18T04:43:20;18.80;99.90
20546;DHT22;10431;50.228;9.112;2023-11-18T04:45:48;18.80;99.90
20546;DHT22;10431;50.228;9.112;2023-11-18T04:48:14;18.80;99.90
20546;DHT22;10431;50.228;9.112;2023-11-18T04:50:41;18.80;99.90
20546;DHT22;10431;50.228;9.112;2023-11-18T04:53:08;18.80;99.90
20546;DHT22;10431;50.228;9.112;2023-11-18T04:55:37;18.80;99.90
20546;DHT22;10431;50.228;9.112;2023-11-18T04:58:03;18.80;99.90
20546;DHT22;10431;50.228;9.112;2023-11-18T05:00:38;18.80;99.90
20546;DHT22;10431;50.228;9.112;2023-11-18T05:03:05;18.80;99.90
20546;DHT22;10431;50.228;9.112;2023-11-18T05:05:37;18.80;99.90
20546;DHT22;10431;50.228;9.112;2023-11-18T05:08:04;18.80;99.90
20546;DHT22;10431;50.228;9.112;2023-11-18T05:10:35;18.80;99.90
20546;DHT22;10431;50.228;9.112;2023-11-18T05:13:03;18.80;99.90
20546;DHT22;10431;50.228;9.112;2023-11-18T05:15:29;18.80;99.90
20546;DHT22;10431;50.228;9.112;2023-11-18T05:17:57;18.80;99.90
20546;DHT22;10431;50.228;9.112;2023-11-18T05:20:23;18.80;99.90
20546;DHT22;10431;50.228;9.112;2023-11-18T05:22:49;18.80;99.90
20546;DHT22;10431;50.228;9.112;2023-11-18T05:25:16;18.80;99.90
20546;DHT22;10431;50.228;9.112;2023-11-18T05:27:42;18.80;99.90
20546;DHT22;10431;50.228;9.112;2023-11-18T05:30:10;18.80;99.90
20546;DHT22;10431;50.228;9.112;2023-11-18T05:32:36;18.80;99.90
20546;DHT22;10431;50.228;9.112;2023-11-18T05:35:04;18.80;99.90
20546;DHT22;10431;50.228;9.112;2023-11-18T05:37:31;18.80;99.90
20546;DHT22;10431;50.228;9.112;2023-11-18T05:40:02;18.80;99.90
20546;DHT22;10431;50.228;9.112;2023-11-18T05:42:36;18.80;99.90
20546;DHT22;10431;50.228;9.112;2023-11-18T05:45:04;18.80;99.90
20546;DHT22;10431;50.228;9.112;2023-11-18T05:47:30;18.80;99.90
20546;DHT22;10431;50.228;9.112;2023-11-18T05:49:57;18.80;99.90
20546;DHT22;10431;50.228;9.112;2023-11-18T05:52:23;18.80;99.90
20546;DHT22;10431;50.228;9.112;2023-11-18T05:54:52;18.80;99.90
20546;DHT22;10431;50.228;9.112;2023-11-18T05:57:18;18.80;99.90
20546;DHT22;10431;50.228;9.112;2023-11-18T05:59:45;18.80;99.90
20546;DHT22;10431;50.228;9.112;2023-11-18T06:02:14;18.80;99.90
20546;DHT22;10431;50.228;9.112;2023-11-18T06:04:44;18.80;99.90
20546;DHT22;10431;50.228;9.112;2023-11-18T06:07:11;18.70;99.90
20546;DHT22;10431;50.228;9.112;2023-11-18T06:09:43;18.80;99.90
20546;DHT22;10431;50.228;9.112;2023-11-18T06:12:10;18.70;99.90
20546;DHT22;10431;50.228;9.112;2023-11-18T06:14:37;18.80;99.90
20546;DHT22;10431;50.228;9.112;2023-11-18T06:17:04;18.80;99.90
20546;DHT22;10431;50.228;9.112;2023-11-18T06:19:30;18.80;99.90
20546;DHT22;10431;50.228;9.112;2023-11-18T06:21:56;18.80;99.90
20546;DHT22;10431;50.228;9.112;2023-11-18T06:24:22;18.80;99.90
20546;DHT22;10431;50.228;9.112;2023-11-18T06:26:48;18.80;99.90
20546;DHT22;10431;50.228;9.112;2023-11-18T06:29:15;18.80;99.90
20546;DHT22;10431;50.228;9.112;2023-11-18T06:31:42;18.80;99.90
20546;DHT22;10431;50.228;9.112;2023-11-18T06:34:08;18.80;99.90
20546;DHT22;10431;50.228;9.112;2023-11-18T06:36:34;18.80;99.90
20546;DHT22;10431;50.228;9.112;2023-11-18T06:39:01;18.80;99.90
20546;DHT22;10431;50.228;9.112;2023-11-18T06:41:27;18.80;99.90
20546;DHT22;10431;50.228;9.112;2023-11-18T06:44:00;18.80;99.90
20546;DHT22;10431;50.228;9.112;2023-11-18T06:46:35;18.80;99.90
20546;DHT22;10431;50.228;9.112;2023-11-18T06:49:03;18.80;99.90
20546;DHT22;10431;50.228;9.112;2023-11-18T06:51:31;18.80;99.90
20546;DHT22;10431;50.228;9.112;2023-11-18T06:54:01;17.90;92.50
20546;DHT22;10431;50.228;9.112;2023-11-18T06:56:36;17.00;90.00
20546;DHT22;10431;50.228;9.112;2023-11-18T06:59:06;16.70;90.70
20546;DHT22;10431;50.228;9.112;2023-11-18T07:01:36;17.10;92.80
20546;DHT22;10431;50.228;9.112;2023-11-18T07:04:02;17.50;94.30
20546;DHT22;10431;50.228;9.112;2023-11-18T07:06:29;17.80;93.40
20546;DHT22;10431;50.228;9.112;2023-11-18T07:08:55;18.20;93.40
20546;DHT22;10431;50.228;9.112;2023-11-18T07:11:26;18.50;93.80
20546;DHT22;10431;50.228;9.112;2023-11-18T07:13:53;18.70;94.00
20546;DHT22;10431;50.228;9.112;2023-11-18T07:16:25;18.90;94.30
20546;DHT22;10431;50.228;9.112;2023-11-18T07:18:52;19.10;94.40
20546;DHT22;10431;50.228;9.112;2023-11-18T07:21:19;19.20;94.50
20546;DHT22;10431;50.228;9.112;2023-11-18T07:23:45;19.20;94.80
20546;DHT22;10431;50.228;9.112;2023-11-18T07:26:12;19.30;94.90
20546;DHT22;10431;50.228;9.112;2023-11-18T07:28:40;19.30;95.20
20546;DHT22;10431;50.228;9.112;2023-11-18T07:31:07;19.30;95.70
20546;DHT22;10431;50.228;9.112;2023-11-18T07:33:33;19.30;95.70
20546;DHT22;10431;50.228;9.112;2023-11-18T07:36:00;19.30;96.00
20546;DHT22;10431;50.228;9.112;2023-11-18T07:38:26;19.30;96.20
20546;DHT22;10431;50.228;9.112;2023-11-18T07:40:53;19.40;96.30
20546;DHT22;10431;50.228;9.112;2023-11-18T07:43:25;19.30;96.50
20546;DHT22;10431;50.228;9.112;2023-11-18T07:45:52;19.40;96.70
20546;DHT22;10431;50.228;9.112;2023-11-18T07:48:19;19.40;96.90
20546;DHT22;10431;50.228;9.112;2023-11-18T07:50:47;19.40;97.00
20546;DHT22;10431;50.228;9.112;2023-11-18T07:53:13;19.30;97.10
20546;DHT22;10431;50.228;9.112;2023-11-18T07:55:40;19.30;97.30
20546;DHT22;10431;50.228;9.112;2023-11-18T07:58:07;19.20;97.50
20546;DHT22;10431;50.228;9.112;2023-11-18T08:00:43;19.20;97.60
20546;DHT22;10431;50.228;9.112;2023-11-18T08:03:11;19.10;97.80
20546;DHT22;10431;50.228;9.112;2023-11-18T08:05:43;19.10;98.00
20546;DHT22;10431;50.228;9.112;2023-11-18T08:08:10;19.10;98.10
20546;DHT22;10431;50.228;9.112;2023-11-18T08:10:38;19.00;98.20
20546;DHT22;10431;50.228;9.112;2023-11-18T08:13:08;18.90;98.30
20546;DHT22;10431;50.228;9.112;2023-11-18T08:15:37;18.90;98.50
20546;DHT22;10431;50.228;9.112;2023-11-18T08:18:04;18.90;98.60
20546;DHT22;10431;50.228;9.112;2023-11-18T08:20:30;18.80;98.70
20546;DHT22;10431;50.228;9.112;2023-11-18T08:22:56;18.80;98.80
20546;DHT22;10431;50.228;9.112;2023-11-18T08:25:22;18.80;98.90
20546;DHT22;10431;50.228;9.112;2023-11-18T08:27:49;18.70;99.00
20546;DHT22;10431;50.228;9.112;2023-11-18T08:30:15;18.70;99.10
20546;DHT22;10431;50.228;9.112;2023-11-18T08:32:45;18.70;99.20
20546;DHT22;10431;50.228;9.112;2023-11-18T08:35:12;18.60;99.30
20546;DHT22;10431;50.228;9.112;2023-11-18T08:37:42;18.60;99.40
20546;DHT22;10431;50.228;9.112;2023-11-18T08:40:10;18.60;99.50
20546;DHT22;10431;50.228;9.112;2023-11-18T08:42:48;18.60;99.60
20546;DHT22;10431;50.228;9.112;2023-11-18T08:45:20;18.50;99.60
20546;DHT22;10431;50.228;9.112;2023-11-18T08:47:56;18.60;99.70
20546;DHT22;10431;50.228;9.112;2023-11-18T08:50:24;18.60;99.70
20546;DHT22;10431;50.228;9.112;2023-11-18T08:52:51;18.60;99.80
20546;DHT22;10431;50.228;9.112;2023-11-18T08:55:28;18.60;99.80
20546;DHT22;10431;50.228;9.112;2023-11-18T08:58:13;18.60;99.90
20546;DHT22;10431;50.228;9.112;2023-11-18T09:00:51;18.70;99.90
20546;DHT22;10431;50.228;9.112;2023-11-18T09:03:24;18.70;99.90
20546;DHT22;10431;50.228;9.112;2023-11-18T09:05:52;18.70;99.90
20546;DHT22;10431;50.228;9.112;2023-11-18T09:08:34;18.70;99.90
20546;DHT22;10431;50.228;9.112;2023-11-18T09:11:14;18.70;99.90
20546;DHT22;10431;50.228;9.112;2023-11-18T09:13:48;18.70;99.90
20546;DHT22;10431;50.228;9.112;2023-11-18T09:16:17;18.70;99.90
20546;DHT22;10431;50.228;9.112;2023-11-18T09:18:44;18.80;99.90
20546;DHT22;10431;50.228;9.112;2023-11-18T09:21:13;18.80;99.90
20546;DHT22;10431;50.228;9.112;2023-11-18T09:23:45;18.70;99.80
20546;DHT22;10431;50.228;9.112;2023-11-18T09:26:14;18.70;99.70
20546;DHT22;10431;50.228;9.112;2023-11-18T09:28:40;18.70;99.60
20546;DHT22;10431;50.228;9.112;2023-11-18T09:31:07;18.70;99.20
20546;DHT22;10431;50.228;9.112;2023-11-18T09:33:39;18.80;99.10
20546;DHT22;10431;50.228;9.112;2023-11-18T09:36:07;18.80;99.20
20546;DHT22;10431;50.228;9.112;2023-11-18T09:38:35;18.90;99.30
20546;DHT22;10431;50.228;9.112;2023-11-18T09:41:04;18.90;99.20
20546;DHT22;10431;50.228;9.112;2023-11-18T09:43:34;19.10;99.10
20546;DHT22;10431;50.228;9.112;2023-11-18T09:46:10;19.10;99.40
20546;DHT22;10431;50.228;9.112;2023-11-18T09:52:34;19.10;99.90
20546;DHT22;10431;50.228;9.112;2023-11-18T09:55:04;19.10;99.90
20546;DHT22;10431;50.228;9.112;2023-11-18T09:57:44;19.10;99.90
20546;DHT22;10431;50.228;9.112;2023-11-18T10:00:12;19.10;99.90
20546;DHT22;10431;50.228;9.112;2023-11-18T10:02:50;19.00;99.90
20546;DHT22;10431;50.228;9.112;2023-11-18T10:05:17;19.00;99.90
20546;DHT22;10431;50.228;9.112;2023-11-18T10:07:47;19.10;99.90
20546;DHT22;10431;50.228;9.112;2023-11-18T10:10:13;19.10;99.90
20546;DHT22;10431;50.228;9.112;2023-11-18T10:12:43;19.10;99.90
20546;DHT22;10431;50.228;9.112;2023-11-18T10:15:14;19.10;99.90
20546;DHT22;10431;50.228;9.112;2023-11-18T10:17:45;19.10;99.90
20546;DHT22;10431;50.228;9.112;2023-11-18T10:23:06;19.00;99.90
20546;DHT22;10431;50.228;9.112;2023-11-18T10:25:37;19.00;99.90
20546;DHT22;10431;50.228;9.112;2023-11-18T10:28:07;19.00;99.90
20546;DHT22;10431;50.228;9.112;2023-11-18T10:30:45;19.10;99.90
20546;DHT22;10431;50.228;9.112;2023-11-18T10:33:14;19.10;99.90
20546;DHT22;10431;50.228;9.112;2023-11-18T10:35:52;19.20;99.90
20546;DHT22;10431;50.228;9.112;2023-11-18T10:38:22;19.40;99.90
20546;DHT22;10431;50.228;9.112;2023-11-18T10:40:55;19.50;99.90
20546;DHT22;10431;50.228;9.112;2023-11-18T10:43:22;19.50;99.90
20546;DHT22;10431;50.228;9.112;2023-11-18T10:46:13;19.60;99.90
20546;DHT22;10431;50.228;9.112;2023-11-18T10:48:40;19.70;99.90
20546;DHT22;10431;50.228;9.112;2023-11-18T10:51:14;19.70;99.90
20546;DHT22;10431;50.228;9.112;2023-11-18T10:53:43;19.80;99.70
20546;DHT22;10431;50.228;9.112;2023-11-18T10:56:20;19.80;99.40
20546;DHT22;10431;50.228;9.112;2023-11-18T10:59:10;19.80;99.20
20546;DHT22;10431;50.228;9.112;2023-11-18T11:01:43;19.80;99.10
20546;DHT22;10431;50.228;9.112;2023-11-18T11:04:15;19.80;98.20
20546;DHT22;10431;50.228;9.112;2023-11-18T11:06:47;19.80;98.10
20546;DHT22;10431;50.228;9.112;2023-11-18T11:09:21;19.70;97.90
20546;DHT22;10431;50.228;9.112;2023-11-18T11:11:53;19.80;98.00
20546;DHT22;10431;50.228;9.112;2023-11-18T11:14:23;19.80;98.10
20546;DHT22;10431;50.228;9.112;2023-11-18T11:17:05;19.90;98.00
20546;DHT22;10431;50.228;9.112;2023-11-18T11:20:05;19.90;97.80
20546;DHT22;10431;50.228;9.112;2023-11-18T11:25:50;19.90;97.50
20546;DHT22;10431;50.228;9.112;2023-11-18T11:28:22;19.90;97.50
20546;DHT22;10431;50.228;9.112;2023-11-18T11:30:55;19.90;97.50
20546;DHT22;10431;50.228;9.112;2023-11-18T11:36:29;20.00;97.30
20546;DHT22;10431;50.228;9.112;2023-11-18T11:38:59;20.00;97.30
20546;DHT22;10431;50.228;9.112;2023-11-18T11:41:28;20.00;97.20
20546;DHT22;10431;50.228;9.112;2023-11-18T11:43:55;20.00;97.10
20546;DHT22;10431;50.228;9.112;2023-11-18T11:46:27;20.00;97.10
20546;DHT22;10431;50.228;9.112;2023-11-18T11:49:02;20.00;97.00
20546;DHT22;10431;50.228;9.112;2023-11-18T11:51:47;20.00;97.00
20546;DHT22;10431;50.228;9.112;2023-11-18T11:54:25;20.00;96.80
20546;DHT22;10431;50.228;9.112;2023-11-18T11:56:56;20.00;96.70
20546;DHT22;10431;50.228;9.112;2023-11-18T12:02:14;20.00;96.70
20546;DHT22;10431;50.228;9.112;2023-11-18T12:04:45;20.00;96.70
20546;DHT22;10431;50.228;9.112;2023-11-18T12:07:14;20.00;96.60
20546;DHT22;10431;50.228;9.112;2023-11-18T12:09:41;20.00;96.60
20546;DHT22;10431;50.228;9.112;2023-11-18T12:12:23;20.00;96.50
20546;DHT22;10431;50.228;9.112;2023-11-18T12:14:57;20.00;96.40
20546;DHT22;10431;50.228;9.112;2023-11-18T12:17:26;20.00;96.40
20546;DHT22;10431;50.228;9.112;2023-11-18T12:19:58;20.10;96.40
20546;DHT22;10431;50.228;9.112;2023-11-18T12:22:25;20.10;96.40
20546;DHT22;10431;50.228;9.112;2023-11-18T12:33:00;20.10;96.40
20546;DHT22;10431;50.228;9.112;2023-11-18T12:49:13;20.20;96.30
20546;DHT22;10431;50.228;9.112;2023-11-18T12:51:44;20.20;96.30
20546;DHT22;10431;50.228;9.112;2023-11-18T12:54:14;20.20;96.40
20546;DHT22;10431;50.228;9.112;2023-11-18T12:56:42;20.20;96.40
20546;DHT22;10431;50.228;9.112;2023-11-18T12:59:15;20.20;96.40
20546;DHT22;10431;50.228;9.112;2023-11-18T13:01:44;20.20;96.50
20546;DHT22;10431;50.228;9.112;2023-11-18T13:04:17;20.20;96.60
20546;DHT22;10431;50.228;9.112;2023-11-18T13:06:46;20.20;96.50
20546;DHT22;10431;50.228;9.112;2023-11-18T13:09:14;20.20;96.60
20546;DHT22;10431;50.228;9.112;2023-11-18T13:12:01;20.10;96.60
20546;DHT22;10431;50.228;9.112;2023-11-18T13:14:32;20.10;96.70
20546;DHT22;10431;50.228;9.112;2023-11-18T13:17:03;20.00;96.70
20546;DHT22;10431;50.228;9.112;2023-11-18T13:19:32;19.90;96.80
20546;DHT22;10431;50.228;9.112;2023-11-18T13:22:02;19.90;96.90
20546;DHT22;10431;50.228;9.112;2023-11-18T13:24:33;19.90;97.00
20546;DHT22;10431;50.228;9.112;2023-11-18T13:27:00;19.80;97.10
20546;DHT22;10431;50.228;9.112;2023-11-18T13:29:30;19.80;97.10
20546;DHT22;10431;50.228;9.112;2023-11-18T13:31:58;19.70;97.20
20546;DHT22;10431;50.228;9.112;2023-11-18T13:34:26;19.70;97.20
20546;DHT22;10431;50.228;9.112;2023-11-18T13:36:54;19.70;97.30
20546;DHT22;10431;50.228;9.112;2023-11-18T13:39:21;19.70;97.30
20546;DHT22;10431;50.228;9.112;2023-11-18T13:41:49;19.70;97.30
20546;DHT22;10431;50.228;9.112;2023-11-18T13:44:35;19.60;97.40
20546;DHT22;10431;50.228;9.112;2023-11-18T13:47:02;19.60;97.40
20546;DHT22;10431;50.228;9.112;2023-11-18T13:49:32;19.60;97.50
20546;DHT22;10431;50.228;9.112;2023-11-18T13:52:00;19.60;97.50
20546;DHT22;10431;50.228;9.112;2023-11-18T13:54:28;19.60;97.60
20546;DHT22;10431;50.228;9.112;2023-11-18T13:56:57;19.50;97.60
20546;DHT22;10431;50.228;9.112;2023-11-18T13:59:27;19.50;97.60
20546;DHT22;10431;50.228;9.112;2023-11-18T14:01:54;19.50;97.60
20546;DHT22;10431;50.228;9.112;2023-11-18T14:04:26;19.50;97.70
20546;DHT22;10431;50.228;9.112;2023-11-18T14:06:57;19.50;97.70
20546;DHT22;10431;50.228;9.112;2023-11-18T14:09:23;19.40;97.80
20546;DHT22;10431;50.228;9.112;2023-11-18T14:11:53;19.40;97.80
20546;DHT22;10431;50.228;9.112;2023-11-18T14:14:25;19.40;97.90
20546;DHT22;10431;50.228;9.112;2023-11-18T14:16:53;19.30;97.90
20546;DHT22;10431;50.228;9.112;2023-11-18T14:19:27;19.30;97.90
20546;DHT22;10431;50.228;9.112;2023-11-18T14:21:56;19.20;98.00
20546;DHT22;10431;50.228;9.112;2023-11-18T14:24:23;19.20;98.10
20546;DHT22;10431;50.228;9.112;2023-11-18T14:26:56;19.10;98.10
20546;DHT22;10431;50.228;9.112;2023-11-18T14:29:23;19.10;98.20
20546;DHT22;10431;50.228;9.112;2023-11-18T14:31:49;19.10;98.20
20546;DHT22;10431;50.228;9.112;2023-11-18T14:34:15;19.10;98.30
20546;DHT22;10431;50.228;9.112;2023-11-18T14:36:42;19.10;98.30
20546;DHT22;10431;50.228;9.112;2023-11-18T14:39:11;19.10;98.80
20546;DHT22;10431;50.228;9.112;2023-11-18T14:41:40;19.00;98.30
20546;DHT22;10431;50.228;9.112;2023-11-18T14:44:06;19.00;98.20
20546;DHT22;10431;50.228;9.112;2023-11-18T14:46:35;19.00;98.20
20546;DHT22;10431;50.228;9.112;2023-11-18T14:49:04;19.00;98.10
20546;DHT22;10431;50.228;9.112;2023-11-18T14:51:33;19.10;98.10
20546;DHT22;10431;50.228;9.112;2023-11-18T14:54:00;19.10;98.10
20546;DHT22;10431;50.228;9.112;2023-11-18T14:56:26;19.10;98.10
20546;DHT22;10431;50.228;9.112;2023-11-18T14:58:52;19.10;98.10
20546;DHT22;10431;50.228;9.112;2023-11-18T15:01:18;19.10;98.10
20546;DHT22;10431;50.228;9.112;2023-11-18T15:03:45;19.10;98.10
20546;DHT22;10431;50.228;9.112;2023-11-18T15:06:14;19.10;98.10
20546;DHT22;10431;50.228;9.112;2023-11-18T15:08:42;19.10;98.10
20546;DHT22;10431;50.228;9.112;2023-11-18T15:11:09;19.10;98.10
20546;DHT22;10431;50.228;9.112;2023-11-18T15:13:35;19.10;98.10
20546;DHT22;10431;50.228;9.112;2023-11-18T15:16:03;19.10;98.20
20546;DHT22;10431;50.228;9.112;2023-11-18T15:18:30;19.10;98.20
20546;DHT22;10431;50.228;9.112;2023-11-18T15:20:56;19.10;98.20
20546;DHT22;10431;50.228;9.112;2023-11-18T15:23:22;19.10;98.20
20546;DHT22;10431;50.228;9.112;2023-11-18T15:25:49;19.10;98.20
20546;DHT22;10431;50.228;9.112;2023-11-18T15:28:18;19.10;98.30
20546;DHT22;10431;50.228;9.112;2023-11-18T15:30:45;19.00;98.40
20546;DHT22;10431;50.228;9.112;2023-11-18T15:33:11;19.00;98.50
20546;DHT22;10431;50.228;9.112;2023-11-18T15:35:40;18.90;98.60
20546;DHT22;10431;50.228;9.112;2023-11-18T15:38:11;19.00;98.70
20546;DHT22;10431;50.228;9.112;2023-11-18T15:40:42;18.90;98.60
20546;DHT22;10431;50.228;9.112;2023-11-18T15:43:08;18.90;98.60
20546;DHT22;10431;50.228;9.112;2023-11-18T15:45:38;18.90;98.50
20546;DHT22;10431;50.228;9.112;2023-11-18T15:48:04;18.90;98.50
20546;DHT22;10431;50.228;9.112;2023-11-18T15:50:31;19.00;98.50
20546;DHT22;10431;50.228;9.112;2023-11-18T15:52:58;19.00;98.50
20546;DHT22;10431;50.228;9.112;2023-11-18T15:55:24;19.00;98.60
20546;DHT22;10431;50.228;9.112;2023-11-18T15:57:52;19.10;98.70
20546;DHT22;10431;50.228;9.112;2023-11-18T16:00:20;19.10;98.70
20546;DHT22;10431;50.228;9.112;2023-11-18T16:02:47;19.10;99.60
20546;DHT22;10431;50.228;9.112;2023-11-18T16:05:15;19.10;99.40
20546;DHT22;10431;50.228;9.112;2023-11-18T16:07:48;19.20;99.50
20546;DHT22;10431;50.228;9.112;2023-11-18T16:10:15;19.20;99.50
20546;DHT22;10431;50.228;9.112;2023-11-18T16:12:45;19.10;99.60
20546;DHT22;10431;50.228;9.112;2023-11-18T16:15:12;19.20;99.90
20546;DHT22;10431;50.228;9.112;2023-11-18T16:17:40;19.20;99.90
20546;DHT22;10431;50.228;9.112;2023-11-18T16:20:08;19.20;99.90